createdAt,value
2022-10-23T00:04:52.618Z,9.70
2022-10-23T00:09:55.641Z,11.80
2022-10-23T00:14:58.717Z,11.50
2022-10-23T00:20:01.843Z,11.30
2022-10-23T00:25:07.401Z,9.90
2022-10-23T00:30:11.821Z,10.80
2022-10-23T00:35:15.034Z,11.40
2022-10-23T00:40:18.346Z,10.70
2022-10-23T00:45:27.192Z,11.50
2022-10-23T00:50:33.163Z,10.00
2022-10-23T00:55:38.723Z,7.20
2022-10-23T01:00:48.591Z,10.60
2022-10-23T01:06:08.900Z,10.70
2022-10-23T01:11:30.887Z,8.30
2022-10-23T01:16:52.794Z,10.30
2022-10-23T01:22:16.501Z,6.40
2022-10-23T01:27:41.292Z,9.00
2022-10-23T01:33:10.408Z,9.10
2022-10-23T01:38:33.383Z,10.00
2022-10-23T01:43:45.809Z,8.90
2022-10-23T01:48:53.973Z,8.90
2022-10-23T01:54:01.112Z,9.90
2022-10-23T01:59:11.203Z,9.60
2022-10-23T02:04:23.938Z,9.90
2022-10-23T02:09:27.658Z,9.00
2022-10-23T02:14:53.396Z,9.90
2022-10-23T02:20:17.389Z,10.70
2022-10-23T02:25:30.424Z,9.60
2022-10-23T02:30:37.828Z,9.50
2022-10-23T02:35:41.455Z,9.60
2022-10-23T02:40:47.225Z,9.80
2022-10-23T02:46:09.280Z,11.50
2022-10-23T02:51:21.388Z,10.80
2022-10-23T02:57:02.484Z,11.60
2022-10-23T03:02:25.602Z,11.90
2022-10-23T03:07:29.589Z,10.80
2022-10-23T03:12:32.793Z,10.80
2022-10-23T03:17:35.901Z,10.70
2022-10-23T03:22:40.347Z,11.40
2022-10-23T03:27:43.754Z,11.70
2022-10-23T03:32:46.755Z,12.20
2022-10-23T03:37:49.861Z,12.10
2022-10-23T03:42:52.984Z,25.20
2022-10-23T03:47:56.074Z,24.40
2022-10-23T03:52:59.395Z,13.80
2022-10-23T03:58:02.591Z,36.10
2022-10-23T04:03:05.819Z,14.40
2022-10-23T04:08:10.150Z,18.30
2022-10-23T04:13:13.244Z,28.50
2022-10-23T04:18:17.150Z,24.00
2022-10-23T04:23:20.997Z,19.20
2022-10-23T04:28:24.956Z,16.20
2022-10-23T04:33:29.251Z,26.10
2022-10-23T04:38:32.363Z,29.60
2022-10-23T04:43:35.874Z,15.70
2022-10-23T04:48:38.898Z,9.80
2022-10-23T04:53:41.877Z,14.00
2022-10-23T04:58:44.987Z,11.00
2022-10-23T05:03:48.195Z,14.10
2022-10-23T05:08:51.320Z,11.00
2022-10-23T05:13:54.320Z,11.40
2022-10-23T05:18:58.289Z,12.80
2022-10-23T05:24:02.340Z,12.40
2022-10-23T05:29:05.478Z,12.40
2022-10-23T05:34:11.279Z,10.30
2022-10-23T05:39:17.638Z,12.30
2022-10-23T05:44:21.438Z,12.90
2022-10-23T05:49:26.268Z,9.80
2022-10-23T05:54:29.288Z,12.40
2022-10-23T05:59:32.302Z,13.70
2022-10-23T06:04:36.327Z,13.70
2022-10-23T06:09:39.429Z,13.50
2022-10-23T06:14:42.436Z,13.60
2022-10-23T06:19:46.409Z,13.30
2022-10-23T06:24:49.393Z,13.30
2022-10-23T06:29:52.467Z,11.10
2022-10-23T06:34:55.576Z,8.50
2022-10-23T06:39:58.578Z,10.50
2022-10-23T06:45:04.848Z,9.90
2022-10-23T06:50:13.087Z,10.30
2022-10-23T06:55:19.746Z,9.30
2022-10-23T07:00:23.083Z,8.30
2022-10-23T07:05:26.106Z,8.80
2022-10-23T07:10:29.197Z,9.70
2022-10-23T07:15:32.613Z,9.90
2022-10-23T07:20:35.621Z,7.30
2022-10-23T07:25:38.620Z,8.60
2022-10-23T07:30:41.753Z,7.10
2022-10-23T07:35:46.466Z,8.50
2022-10-23T07:40:49.802Z,7.60
2022-10-23T07:45:54.255Z,7.60
2022-10-23T07:51:08.382Z,7.20
2022-10-23T07:56:18.566Z,7.40
2022-10-23T08:01:38.627Z,7.80
2022-10-23T08:06:41.968Z,8.00
2022-10-23T08:11:44.994Z,8.20
2022-10-23T08:16:48.434Z,8.80
2022-10-23T08:21:54.905Z,8.50
2022-10-23T08:26:58.898Z,10.50
2022-10-23T08:32:05.183Z,9.20
2022-10-23T08:37:08.184Z,8.40
2022-10-23T08:42:25.325Z,8.20
2022-10-23T08:47:44.703Z,11.70
2022-10-23T08:52:59.073Z,11.30
2022-10-23T08:58:11.103Z,7.90
2022-10-23T09:03:14.713Z,6.60
2022-10-23T09:08:44.545Z,4.60
2022-10-23T09:14:05.061Z,5.70
2022-10-23T09:19:17.830Z,5.70
2022-10-23T09:24:24.699Z,6.30
2022-10-23T09:29:36.171Z,6.20
2022-10-23T09:34:55.441Z,8.00
2022-10-23T09:40:34.221Z,6.70
2022-10-23T09:45:39.364Z,9.10
2022-10-23T09:50:53.633Z,12.10
2022-10-23T09:56:01.741Z,8.50
2022-10-23T10:01:05.978Z,8.60
2022-10-23T10:06:32.732Z,8.90
2022-10-23T10:11:44.266Z,10.10
2022-10-23T10:16:55.963Z,10.20
2022-10-23T10:22:36.247Z,9.80
2022-10-23T10:28:06.699Z,9.50
2022-10-23T10:33:31.915Z,10.50
2022-10-23T10:38:44.161Z,9.60
2022-10-23T10:44:09.406Z,8.80
2022-10-23T10:49:33.260Z,10.20
2022-10-23T10:55:14.142Z,12.60
2022-10-23T11:00:23.558Z,10.90
2022-10-23T11:05:34.280Z,11.00
2022-10-23T11:10:44.760Z,12.40
2022-10-23T11:15:48.457Z,10.50
2022-10-23T11:21:11.661Z,13.00
2022-10-23T11:26:36.786Z,11.30
2022-10-23T11:32:20.604Z,10.70
2022-10-23T11:37:27.032Z,10.50
2022-10-23T11:42:34.554Z,11.90
2022-10-23T11:47:42.838Z,9.40
2022-10-23T11:53:13.607Z,10.40
2022-10-23T11:58:33.825Z,10.30
2022-10-23T12:04:00.690Z,10.60
2022-10-23T12:09:22.334Z,12.40
2022-10-23T12:14:29.894Z,12.50
2022-10-23T12:19:50.639Z,11.80
2022-10-23T12:25:23.538Z,12.50
2022-10-23T12:30:51.318Z,11.40
2022-10-23T12:36:08.074Z,10.20
2022-10-23T12:41:18.690Z,11.60
2022-10-23T12:46:43.597Z,9.50
2022-10-23T12:52:14.633Z,11.20
2022-10-23T12:57:28.956Z,11.10
2022-10-23T13:02:33.286Z,9.80
2022-10-23T13:07:44.035Z,12.40
2022-10-23T13:13:05.947Z,9.60
2022-10-23T13:18:13.074Z,9.10
2022-10-23T13:23:35.121Z,9.90
2022-10-23T13:28:46.189Z,8.80
2022-10-23T13:34:19.257Z,11.20
2022-10-23T13:39:30.335Z,11.60
2022-10-23T13:44:33.323Z,11.70
2022-10-23T13:49:36.326Z,10.80
2022-10-23T13:54:39.326Z,10.00
2022-10-23T13:59:43.055Z,10.70
2022-10-23T14:04:47.460Z,11.00
2022-10-23T14:09:50.788Z,11.30
2022-10-23T14:14:54.209Z,10.10
2022-10-23T14:19:57.213Z,10.20
2022-10-23T14:25:00.357Z,9.40
2022-10-23T14:30:04.779Z,10.70
2022-10-23T14:35:08.607Z,12.80
2022-10-23T14:40:11.991Z,14.80
2022-10-23T14:45:15.047Z,13.00
2022-10-23T14:50:19.226Z,10.40
2022-10-23T14:55:22.436Z,11.90
2022-10-23T15:00:26.067Z,11.60
2022-10-23T15:05:29.157Z,11.10
2022-10-23T15:10:32.267Z,11.00
2022-10-23T15:15:35.377Z,12.20
2022-10-23T15:20:38.416Z,13.20
2022-10-23T15:25:42.305Z,14.50
2022-10-23T15:30:46.329Z,15.80
2022-10-23T15:35:50.433Z,15.10
2022-10-23T15:41:13.746Z,12.80
2022-10-23T15:46:16.745Z,12.80
2022-10-23T15:51:21.029Z,13.40
2022-10-23T15:56:25.863Z,13.70
2022-10-23T16:01:29.520Z,14.50
2022-10-23T16:06:32.957Z,15.20
2022-10-23T16:11:39.350Z,13.70
2022-10-23T16:16:42.864Z,13.00
2022-10-23T16:21:46.065Z,15.50
2022-10-23T16:26:53.342Z,16.80
2022-10-23T16:31:57.809Z,17.50
2022-10-23T16:37:00.933Z,17.80
2022-10-23T16:42:04.772Z,23.00
2022-10-23T16:47:07.956Z,17.90
2022-10-23T16:52:11.153Z,16.50
2022-10-23T16:57:14.272Z,18.90
2022-10-23T17:02:17.581Z,33.40
2022-10-23T17:12:25.418Z,44.70
2022-10-23T17:17:28.463Z,55.70
2022-10-23T17:22:31.844Z,48.60
2022-10-23T17:27:35.050Z,39.80
2022-10-23T17:32:38.262Z,36.90
2022-10-23T17:37:41.298Z,34.20
2022-10-23T17:42:44.692Z,38.00
2022-10-23T17:47:48.193Z,37.20
2022-10-23T17:52:51.600Z,35.30
2022-10-23T17:57:54.707Z,29.90
2022-10-23T18:02:57.822Z,35.10
2022-10-23T18:08:01.331Z,32.60
2022-10-23T18:13:04.435Z,26.20
2022-10-23T18:18:08.161Z,26.50
2022-10-23T18:23:11.468Z,29.50
2022-10-23T18:28:14.496Z,23.40
2022-10-23T18:33:18.705Z,18.20
2022-10-23T18:38:21.843Z,21.90
2022-10-23T18:43:42.450Z,20.10
2022-10-23T18:48:50.945Z,19.70
2022-10-23T18:53:55.106Z,21.10
2022-10-23T18:59:01.957Z,20.00
2022-10-23T19:04:06.578Z,21.60
2022-10-23T19:09:13.810Z,19.00
2022-10-23T19:14:18.365Z,21.30
2022-10-23T19:19:30.483Z,19.80
2022-10-23T19:24:51.141Z,17.40
2022-10-23T19:29:55.546Z,21.70
2022-10-23T19:35:01.390Z,22.00
2022-10-23T19:40:07.100Z,23.60
2022-10-23T19:45:14.821Z,23.70
2022-10-23T19:50:18.101Z,23.30
2022-10-23T19:55:21.206Z,27.20
2022-10-23T20:00:24.434Z,26.20
2022-10-23T20:05:27.830Z,27.10
2022-10-23T20:10:31.039Z,32.60
2022-10-23T20:15:38.223Z,31.90
2022-10-23T20:20:43.175Z,33.00
2022-10-23T20:25:46.202Z,39.20
2022-10-23T20:30:49.300Z,41.50
2022-10-23T20:35:53.053Z,41.30
2022-10-23T20:41:00.506Z,35.30
2022-10-23T20:46:06.270Z,36.50
2022-10-23T20:51:15.612Z,30.70
2022-10-23T20:56:32.446Z,26.50
2022-10-23T21:01:36.466Z,29.10
2022-10-23T21:06:57.484Z,26.90
2022-10-23T21:12:04.759Z,27.50
2022-10-23T21:17:09.171Z,27.60
2022-10-23T21:22:12.401Z,27.60
2022-10-23T21:27:15.592Z,17.60
2022-10-23T21:32:21.159Z,18.80
2022-10-23T21:37:25.798Z,16.20
2022-10-23T21:47:38.767Z,17.50
2022-10-23T21:52:42.267Z,14.10
2022-10-23T21:57:45.592Z,13.70
2022-10-23T22:02:49.134Z,14.00
2022-10-23T22:07:52.418Z,19.10
2022-10-23T22:12:55.522Z,13.20
2022-10-23T22:18:00.165Z,14.70
2022-10-23T22:23:03.183Z,13.40
2022-10-23T22:28:06.378Z,12.50
2022-10-23T22:33:09.392Z,13.50
2022-10-23T22:38:12.490Z,13.70
2022-10-23T22:43:15.496Z,13.50
2022-10-23T22:48:18.645Z,14.10
2022-10-23T22:53:21.703Z,12.00
2022-10-23T22:58:26.451Z,11.80
2022-10-23T23:03:29.630Z,11.30
2022-10-23T23:08:34.418Z,9.70
2022-10-23T23:13:37.406Z,12.90
2022-10-23T23:18:40.445Z,11.50
2022-10-23T23:23:43.720Z,20.40
2022-10-23T23:28:52.113Z,14.10
2022-10-23T23:33:55.869Z,11.40
2022-10-23T23:38:59.429Z,10.40
2022-10-23T23:44:02.495Z,12.80
2022-10-23T23:49:05.528Z,12.40
2022-10-23T23:54:08.809Z,13.30
2022-10-23T23:59:11.912Z,10.30
